Davenport, Iowa
Current Conditions -  °F | °C
As of 1:52 PM on Thursday 27 Nov 2014 (Local Time) from KDVN Reporting Station
Clear Clear  
Wind Chill:   Ceiling: Unl
Heat Index: 19°   Visibility: 10mi
Dew Point:   Wind: 16mph
Humidity: 59%   Direction: 290°WNW
Pressure: 30.42"   Gusts: NA
Location:  41.54°N, 90.58°W
Report Text: KDVN 271952Z AUTO 29014KT 10SM CLR M07/M14 A3042 RMK AO2 SLP314 T10721139
Loading
Personal Weather Stations






























Interactive Weather Map New forecast layout! Learn more

10-Day Weather Forecast

Advertisements
Track Severe Weather on mobile